createdAt,value
2023-09-20T00:01:24.613Z,56.99
2023-09-20T00:03:57.582Z,54.91
2023-09-20T00:06:30.403Z,56.42
2023-09-20T00:09:04.317Z,55.94
2023-09-20T00:11:42.531Z,55.47
2023-09-20T00:14:18.754Z,55.69
2023-09-20T00:16:54.555Z,57.18
2023-09-20T00:19:28.471Z,57.45
2023-09-20T00:22:02.216Z,57.26
2023-09-20T00:24:36.986Z,55.91
2023-09-20T00:27:14.955Z,55.60
2023-09-20T00:29:48.250Z,55.58
2023-09-20T00:32:22.396Z,55.79
2023-09-20T00:34:55.405Z,55.95
2023-09-20T00:37:33.117Z,55.99
2023-09-20T00:40:09.061Z,56.63
2023-09-20T00:42:45.796Z,56.23
2023-09-20T00:45:19.383Z,56.32
2023-09-20T00:48:04.798Z,55.74
2023-09-20T00:50:45.280Z,56.39
2023-09-20T00:53:19.255Z,56.33
2023-09-20T00:55:53.645Z,56.19
2023-09-20T00:58:31.562Z,56.00
2023-09-20T01:01:06.118Z,56.73
2023-09-20T01:03:44.361Z,57.02
2023-09-20T01:06:22.102Z,57.26
2023-09-20T01:08:58.957Z,56.78
2023-09-20T01:11:34.342Z,57.77
2023-09-20T01:14:13.772Z,56.85
2023-09-20T01:16:47.300Z,56.87
2023-09-20T01:19:20.976Z,56.77
2023-09-20T01:21:57.017Z,57.47
2023-09-20T01:24:34.927Z,57.34
2023-09-20T01:27:11.048Z,57.69
2023-09-20T01:29:49.206Z,57.65
2023-09-20T01:32:22.573Z,58.13
2023-09-20T01:34:57.930Z,58.28
2023-09-20T01:37:33.968Z,59.59
2023-09-20T01:40:17.521Z,59.98
2023-09-20T01:42:52.285Z,57.88
2023-09-20T01:45:29.126Z,59.22
2023-09-20T01:48:08.646Z,58.35
2023-09-20T01:50:43.672Z,57.20
2023-09-20T01:53:19.766Z,59.74
2023-09-20T01:55:52.945Z,58.71
2023-09-20T01:58:37.997Z,59.64
2023-09-20T02:01:13.814Z,58.98
2023-09-20T02:03:55.143Z,60.10
2023-09-20T02:06:28.321Z,60.02
2023-09-20T02:09:05.238Z,59.40
2023-09-20T02:11:38.523Z,60.03
2023-09-20T02:14:13.259Z,59.49
2023-09-20T02:16:46.253Z,59.38
2023-09-20T02:19:21.587Z,59.74
2023-09-20T02:21:54.968Z,59.29
2023-09-20T02:24:30.530Z,58.30
2023-09-20T02:27:05.146Z,58.83
2023-09-20T02:29:37.859Z,59.67
2023-09-20T02:32:11.409Z,60.50
2023-09-20T02:34:45.028Z,60.24
2023-09-20T02:37:18.785Z,59.69
2023-09-20T02:39:54.387Z,60.17
2023-09-20T02:42:30.461Z,60.90
2023-09-20T02:45:05.023Z,60.07
2023-09-20T02:47:38.486Z,60.10
2023-09-20T02:50:13.959Z,60.65
2023-09-20T02:52:48.394Z,60.92
2023-09-20T02:55:26.331Z,60.75
2023-09-20T02:57:59.320Z,60.36
2023-09-20T03:00:52.433Z,60.89
2023-09-20T03:03:27.344Z,60.27
2023-09-20T03:06:00.892Z,60.11
2023-09-20T03:08:35.261Z,59.83
2023-09-20T03:11:11.833Z,60.03
2023-09-20T03:13:45.569Z,61.15
2023-09-20T03:16:22.919Z,59.75
2023-09-20T03:18:58.458Z,59.64
2023-09-20T03:21:31.490Z,60.99
2023-09-20T03:24:07.457Z,61.49
2023-09-20T03:26:43.805Z,60.13
2023-09-20T03:29:19.701Z,61.00
2023-09-20T03:31:52.791Z,60.77
2023-09-20T03:34:26.053Z,60.59
2023-09-20T03:36:59.251Z,61.56
2023-09-20T03:39:32.644Z,61.95
2023-09-20T03:42:09.224Z,61.30
2023-09-20T03:44:43.710Z,61.73
2023-09-20T03:47:16.608Z,62.62
2023-09-20T03:49:50.892Z,62.71
2023-09-20T03:52:23.639Z,63.66
2023-09-20T03:54:56.737Z,64.95
2023-09-20T03:57:32.092Z,63.98
2023-09-20T04:00:10.946Z,64.78
2023-09-20T04:02:46.160Z,63.60
2023-09-20T04:05:30.475Z,64.83
2023-09-20T04:08:13.040Z,65.23
2023-09-20T04:10:46.218Z,63.79
2023-09-20T04:13:21.586Z,64.37
2023-09-20T04:15:54.514Z,64.24
2023-09-20T04:18:27.882Z,65.77
2023-09-20T04:21:01.431Z,64.96
2023-09-20T04:23:34.873Z,65.20
2023-09-20T04:26:08.050Z,64.00
2023-09-20T04:28:44.582Z,64.66
2023-09-20T04:31:17.675Z,64.57
2023-09-20T04:33:51.156Z,65.09
2023-09-20T04:36:24.384Z,65.49
2023-09-20T04:38:57.806Z,66.18
2023-09-20T04:41:30.534Z,65.77
2023-09-20T04:44:07.476Z,65.86
2023-09-20T04:46:41.047Z,66.36
2023-09-20T04:49:14.642Z,69.23
2023-09-20T04:51:48.341Z,67.90
2023-09-20T04:54:21.989Z,68.14
2023-09-20T04:56:55.093Z,68.25
2023-09-20T04:59:30.793Z,67.46
2023-09-20T05:02:04.844Z,67.45
2023-09-20T05:04:38.237Z,66.14
2023-09-20T05:07:11.701Z,67.61
2023-09-20T05:09:44.223Z,67.87
2023-09-20T05:12:17.177Z,67.55
2023-09-20T05:14:53.665Z,68.08
2023-09-20T05:17:26.330Z,68.21
2023-09-20T05:20:00.159Z,67.86
2023-09-20T05:22:33.843Z,68.31
2023-09-20T05:25:09.582Z,68.43
2023-09-20T05:27:42.506Z,68.11
2023-09-20T05:30:18.157Z,68.09
2023-09-20T05:32:53.928Z,67.87
2023-09-20T05:35:28.019Z,68.47
2023-09-20T05:38:01.629Z,67.28
2023-09-20T05:40:34.984Z,68.12
2023-09-20T05:43:08.774Z,67.13
2023-09-20T05:45:44.901Z,67.04
2023-09-20T05:48:18.294Z,67.77
2023-09-20T05:50:51.794Z,66.95
2023-09-20T05:53:25.029Z,67.56
2023-09-20T05:55:57.851Z,67.55
2023-09-20T05:58:31.834Z,67.11
2023-09-20T06:01:09.808Z,67.44
2023-09-20T06:03:43.146Z,67.80
2023-09-20T06:06:16.172Z,66.85
2023-09-20T06:08:49.163Z,66.07
2023-09-20T06:11:22.501Z,65.94
2023-09-20T06:13:55.787Z,65.65
2023-09-20T06:16:31.044Z,65.28
2023-09-20T06:19:08.082Z,64.93
2023-09-20T06:21:44.977Z,64.89
2023-09-20T06:24:21.467Z,65.33
2023-09-20T06:26:54.553Z,63.90
2023-09-20T06:29:27.236Z,63.46
2023-09-20T06:32:03.466Z,63.83
2023-09-20T06:34:42.984Z,64.15
2023-09-20T06:37:24.663Z,64.25
2023-09-20T06:39:59.299Z,64.56
2023-09-20T06:42:32.972Z,63.99
2023-09-20T06:45:08.734Z,65.46
2023-09-20T06:47:45.613Z,64.86
2023-09-20T06:50:19.188Z,64.19
2023-09-20T06:52:52.971Z,64.55
2023-09-20T06:55:27.082Z,63.92
2023-09-20T06:58:13.566Z,63.27
2023-09-20T07:00:54.156Z,62.18
2023-09-20T07:03:29.811Z,62.20
2023-09-20T07:06:04.525Z,60.34
2023-09-20T07:08:40.960Z,59.93
2023-09-20T07:11:23.667Z,59.66
2023-09-20T07:14:01.207Z,59.96
2023-09-20T07:16:35.665Z,59.45
2023-09-20T07:19:21.442Z,57.21
2023-09-20T07:21:56.409Z,56.32
2023-09-20T07:24:34.665Z,57.49
2023-09-20T07:27:11.297Z,56.78
2023-09-20T07:29:47.629Z,55.55
2023-09-20T07:32:21.134Z,57.19
2023-09-20T07:35:02.252Z,55.83
2023-09-20T07:37:42.492Z,55.39
2023-09-20T07:40:16.173Z,53.28
2023-09-20T07:42:51.576Z,54.78
2023-09-20T07:45:25.733Z,53.92
2023-09-20T07:48:02.566Z,55.48
2023-09-20T07:50:39.118Z,54.41
2023-09-20T07:53:15.809Z,54.49
2023-09-20T07:56:02.363Z,54.41
2023-09-20T07:58:45.510Z,53.88
2023-09-20T08:01:24.241Z,52.74
2023-09-20T08:04:08.065Z,54.57
2023-09-20T08:06:43.880Z,53.44
2023-09-20T08:09:16.456Z,51.49
2023-09-20T08:11:48.818Z,53.19
2023-09-20T08:14:21.966Z,52.52
2023-09-20T08:17:07.050Z,53.07
2023-09-20T08:19:40.829Z,51.48
2023-09-20T08:22:18.975Z,53.44
2023-09-20T08:25:03.491Z,51.30
2023-09-20T08:27:47.768Z,48.29
2023-09-20T08:30:34.154Z,46.84
2023-09-20T08:33:18.378Z,48.08
2023-09-20T08:36:02.699Z,50.57
2023-09-20T08:38:49.374Z,49.74
2023-09-20T08:41:33.745Z,47.00
2023-09-20T08:44:17.766Z,47.77
2023-09-20T08:47:03.816Z,50.20
2023-09-20T08:49:50.812Z,49.95
2023-09-20T08:52:37.262Z,46.99
2023-09-20T08:55:26.738Z,49.33
2023-09-20T08:58:13.458Z,45.79
2023-09-20T09:00:52.130Z,44.07
2023-09-20T09:03:25.562Z,42.93
2023-09-20T09:06:02.313Z,42.44
2023-09-20T09:08:36.089Z,43.88
2023-09-20T09:11:11.509Z,41.72
2023-09-20T09:13:44.648Z,40.58
2023-09-20T09:16:20.555Z,41.87
2023-09-20T09:18:54.484Z,42.76
2023-09-20T09:21:27.014Z,43.16
2023-09-20T09:23:59.408Z,46.03
2023-09-20T09:26:34.552Z,48.54
2023-09-20T09:29:07.187Z,47.66
2023-09-20T09:31:39.699Z,45.04
2023-09-20T09:34:12.873Z,48.15
2023-09-20T09:36:46.091Z,48.90
2023-09-20T09:39:33.792Z,49.12
2023-09-20T09:42:46.012Z,46.94
2023-09-20T09:45:38.667Z,48.03
2023-09-20T09:48:12.118Z,49.52
2023-09-20T09:50:46.981Z,49.22
2023-09-20T09:53:22.800Z,48.60
2023-09-20T09:55:56.341Z,48.29
2023-09-20T09:58:31.022Z,48.12
2023-09-20T10:01:07.290Z,48.31
2023-09-20T10:03:44.594Z,47.65
2023-09-20T10:06:26.619Z,46.58
2023-09-20T10:08:59.974Z,44.45
2023-09-20T10:11:32.966Z,42.73
2023-09-20T10:14:12.549Z,44.24
2023-09-20T10:16:46.461Z,42.25
2023-09-20T10:19:20.187Z,41.23
2023-09-20T10:22:12.267Z,42.63
2023-09-20T10:25:00.574Z,39.96
2023-09-20T10:27:36.423Z,40.19
2023-09-20T10:30:17.491Z,42.04
2023-09-20T10:36:12.146Z,43.30
2023-09-20T10:38:48.465Z,41.64
2023-09-20T10:41:47.053Z,41.21
2023-09-20T10:44:42.740Z,39.95
2023-09-20T10:47:22.544Z,37.66
2023-09-20T10:49:58.857Z,39.15
2023-09-20T10:53:01.104Z,37.40
2023-09-20T10:55:42.662Z,36.62
2023-09-20T10:58:20.129Z,35.87
2023-09-20T11:00:55.806Z,37.58
2023-09-20T11:03:33.759Z,38.25
2023-09-20T11:06:09.567Z,38.32
2023-09-20T11:08:43.042Z,36.63
2023-09-20T11:11:29.521Z,36.44
2023-09-20T11:14:05.453Z,37.05
2023-09-20T11:16:43.330Z,39.60
2023-09-20T11:19:22.211Z,39.13
2023-09-20T11:21:57.460Z,41.34
2023-09-20T11:24:30.815Z,38.75
2023-09-20T11:27:04.166Z,38.53
2023-09-20T11:29:42.375Z,40.08
2023-09-20T11:32:25.976Z,40.02
2023-09-20T11:35:08.673Z,42.83
2023-09-20T11:37:41.233Z,43.84
2023-09-20T11:40:15.230Z,43.76
2023-09-20T11:42:50.145Z,43.77
2023-09-20T11:45:40.685Z,43.35
2023-09-20T11:48:17.206Z,43.44
2023-09-20T11:50:52.930Z,42.00
2023-09-20T11:53:25.619Z,40.36
2023-09-20T11:55:59.148Z,40.41
2023-09-20T11:58:38.504Z,41.91
2023-09-20T12:01:12.196Z,42.86
2023-09-20T12:03:50.869Z,43.25
2023-09-20T12:06:26.588Z,43.46
2023-09-20T12:09:01.708Z,41.88
2023-09-20T12:11:37.430Z,43.84
2023-09-20T12:14:15.840Z,44.55
2023-09-20T12:16:49.902Z,42.93
2023-09-20T12:19:24.688Z,43.58
2023-09-20T12:22:02.541Z,43.55
2023-09-20T12:24:35.595Z,42.79
2023-09-20T12:27:12.924Z,42.66
2023-09-20T12:29:45.657Z,41.31
2023-09-20T12:32:19.114Z,43.68
2023-09-20T12:34:53.637Z,42.54
2023-09-20T12:37:29.524Z,42.60
2023-09-20T12:43:07.821Z,42.69
2023-09-20T12:45:43.019Z,43.12
2023-09-20T12:48:16.647Z,42.00
2023-09-20T12:50:50.070Z,41.74
2023-09-20T12:53:27.228Z,42.05
2023-09-20T12:56:02.609Z,42.40
2023-09-20T12:58:35.989Z,42.87
2023-09-20T13:01:11.703Z,41.58
2023-09-20T13:03:46.063Z,41.75
2023-09-20T13:06:19.642Z,42.25
2023-09-20T13:08:57.661Z,41.74
2023-09-20T13:11:30.454Z,40.99
2023-09-20T13:14:03.805Z,41.95
2023-09-20T13:16:37.431Z,40.31
2023-09-20T13:19:10.910Z,40.23
2023-09-20T13:21:46.482Z,42.12
2023-09-20T13:24:21.890Z,41.27
2023-09-20T13:26:54.863Z,42.15
2023-09-20T13:29:29.894Z,42.80
2023-09-20T13:32:04.681Z,43.08
2023-09-20T13:34:40.047Z,42.31
2023-09-20T13:37:19.921Z,42.63
2023-09-20T13:39:56.418Z,42.61
2023-09-20T13:42:30.604Z,42.50
2023-09-20T13:45:05.903Z,42.72
2023-09-20T13:47:41.704Z,41.39
2023-09-20T13:50:15.485Z,40.88
2023-09-20T13:52:49.023Z,40.29
2023-09-20T13:55:36.015Z,40.38
2023-09-20T13:58:09.817Z,41.12
2023-09-20T14:00:43.562Z,41.28
2023-09-20T14:03:18.147Z,42.15
2023-09-20T14:05:52.757Z,41.93
2023-09-20T14:08:26.051Z,41.96
2023-09-20T14:11:01.826Z,41.55
2023-09-20T14:13:35.105Z,42.22
2023-09-20T14:16:10.819Z,42.31
2023-09-20T14:18:46.341Z,43.75
2023-09-20T14:21:19.570Z,42.96
2023-09-20T14:23:52.786Z,42.33
2023-09-20T14:26:29.804Z,42.47
2023-09-20T14:29:09.043Z,41.58
2023-09-20T14:31:52.099Z,41.12
2023-09-20T14:34:25.266Z,42.02
2023-09-20T14:36:58.980Z,40.99
2023-09-20T14:39:35.818Z,42.39
2023-09-20T14:42:13.819Z,41.33
2023-09-20T14:45:20.449Z,40.61
2023-09-20T14:47:55.923Z,40.84
2023-09-20T14:50:30.733Z,41.36
2023-09-20T14:53:06.780Z,42.12
2023-09-20T14:55:43.991Z,41.60
2023-09-20T14:58:20.909Z,42.03
2023-09-20T15:00:55.101Z,41.31
2023-09-20T15:03:30.599Z,41.76
2023-09-20T15:06:04.314Z,43.04
2023-09-20T15:08:49.577Z,42.72
2023-09-20T15:12:08.495Z,42.71
2023-09-20T15:14:50.715Z,43.52
2023-09-20T15:17:30.544Z,43.53
2023-09-20T15:20:15.684Z,43.66
2023-09-20T15:22:58.689Z,43.85
2023-09-20T15:25:31.693Z,44.39
2023-09-20T15:28:05.011Z,44.57
2023-09-20T15:30:41.695Z,45.42
2023-09-20T15:33:20.533Z,44.09
2023-09-20T15:35:55.392Z,43.73
2023-09-20T15:38:29.508Z,43.98
2023-09-20T15:41:05.979Z,42.82
2023-09-20T15:43:43.574Z,43.95
2023-09-20T15:46:20.857Z,43.46
2023-09-20T15:48:57.474Z,43.66
2023-09-20T15:51:31.616Z,44.53
2023-09-20T15:54:08.300Z,44.50
2023-09-20T15:56:42.681Z,43.58
2023-09-20T15:59:15.628Z,43.46
2023-09-20T16:01:52.173Z,44.01
2023-09-20T16:04:25.359Z,46.18
2023-09-20T16:06:58.358Z,45.29
2023-09-20T16:09:31.587Z,44.25
2023-09-20T16:12:04.561Z,44.23
2023-09-20T16:14:40.743Z,45.97
2023-09-20T16:17:17.027Z,45.24
2023-09-20T16:19:50.635Z,47.15
2023-09-20T16:22:25.036Z,46.98
2023-09-20T16:25:14.275Z,46.75
2023-09-20T16:28:19.417Z,47.40
2023-09-20T16:30:58.787Z,46.22
2023-09-20T16:33:37.724Z,47.54
2023-09-20T16:37:00.003Z,46.99
2023-09-20T16:39:32.974Z,48.25
2023-09-20T16:42:08.833Z,46.34
2023-09-20T16:44:43.626Z,47.99
2023-09-20T16:47:17.067Z,47.27
2023-09-20T16:49:58.254Z,48.40
2023-09-20T16:52:38.376Z,48.18
2023-09-20T16:55:12.475Z,48.17
2023-09-20T16:57:55.659Z,48.14
2023-09-20T17:00:32.038Z,48.91
2023-09-20T17:03:05.968Z,50.64
2023-09-20T17:05:57.227Z,49.47
2023-09-20T17:08:32.831Z,49.36
2023-09-20T17:11:05.945Z,49.42
2023-09-20T17:13:44.389Z,49.47
2023-09-20T17:16:32.999Z,49.23
2023-09-20T17:19:08.429Z,49.74
2023-09-20T17:21:47.456Z,49.01
2023-09-20T17:24:22.771Z,49.65
2023-09-20T17:26:57.193Z,48.94
2023-09-20T17:29:31.899Z,48.98
2023-09-20T17:32:08.330Z,51.54
2023-09-20T17:37:37.503Z,51.15
2023-09-20T17:40:12.171Z,50.79
2023-09-20T17:42:45.718Z,50.72
2023-09-20T17:45:20.265Z,50.69
2023-09-20T17:47:53.298Z,51.87
2023-09-20T17:50:29.213Z,50.80
2023-09-20T17:53:05.039Z,51.20
2023-09-20T17:55:43.980Z,51.26
2023-09-20T18:02:02.119Z,51.61
2023-09-20T18:04:44.980Z,53.25
2023-09-20T18:10:25.512Z,53.30
2023-09-20T18:13:04.995Z,52.98
2023-09-20T18:16:16.761Z,53.57
2023-09-20T18:18:55.641Z,53.91
2023-09-20T18:21:27.877Z,53.47
2023-09-20T18:24:01.742Z,53.96
2023-09-20T18:26:36.693Z,54.38
2023-09-20T18:29:09.889Z,54.44
2023-09-20T18:31:51.748Z,55.02
2023-09-20T18:34:29.844Z,55.38
2023-09-20T18:37:21.531Z,55.57
2023-09-20T18:40:10.128Z,56.25
2023-09-20T18:42:47.934Z,56.58
2023-09-20T18:45:20.802Z,57.77
2023-09-20T18:47:55.732Z,56.64
2023-09-20T18:50:30.953Z,56.33
2023-09-20T18:53:07.871Z,56.23
2023-09-20T18:55:41.915Z,55.75
2023-09-20T18:58:31.809Z,55.48
2023-09-20T19:01:18.063Z,55.35
2023-09-20T19:03:51.701Z,55.39
2023-09-20T19:06:31.316Z,56.18
2023-09-20T19:09:05.371Z,57.61
2023-09-20T19:11:38.211Z,57.48
2023-09-20T19:14:13.702Z,57.56
2023-09-20T19:16:46.742Z,58.75
2023-09-20T19:19:44.142Z,58.25
2023-09-20T19:22:19.476Z,58.13
2023-09-20T19:24:55.032Z,58.95
2023-09-20T19:27:28.234Z,59.74
2023-09-20T19:30:06.798Z,59.44
2023-09-20T19:32:40.242Z,59.70
2023-09-20T19:35:24.628Z,60.01
2023-09-20T19:37:57.499Z,61.14
2023-09-20T19:40:29.855Z,59.30
2023-09-20T19:43:02.498Z,61.70
2023-09-20T19:45:43.716Z,60.00
2023-09-20T19:48:22.618Z,59.69
2023-09-20T19:50:55.142Z,58.97
2023-09-20T19:53:30.556Z,58.64
2023-09-20T19:56:03.193Z,58.14
2023-09-20T19:58:36.037Z,57.68
2023-09-20T20:01:11.190Z,57.70
2023-09-20T20:04:02.258Z,56.69
2023-09-20T20:06:37.721Z,56.42
2023-09-20T20:09:10.630Z,56.53
2023-09-20T20:11:44.460Z,56.88
2023-09-20T20:14:17.302Z,56.67
2023-09-20T20:16:52.494Z,56.74
2023-09-20T20:19:25.301Z,55.96
2023-09-20T20:22:21.199Z,56.03
2023-09-20T20:24:54.636Z,56.43
2023-09-20T20:27:27.328Z,56.69
2023-09-20T20:30:00.779Z,57.41
2023-09-20T20:32:43.755Z,56.66
2023-09-20T20:35:16.670Z,56.54
2023-09-20T20:37:49.865Z,56.73
2023-09-20T20:40:22.807Z,57.33
2023-09-20T20:42:56.722Z,56.97
2023-09-20T20:45:30.046Z,56.67
2023-09-20T20:48:05.728Z,56.95
2023-09-20T20:50:39.563Z,58.68
2023-09-20T20:53:16.813Z,57.04
2023-09-20T20:55:49.468Z,57.83
2023-09-20T20:58:25.494Z,58.08
2023-09-20T21:00:59.344Z,58.70
2023-09-20T21:03:35.829Z,59.10
2023-09-20T21:06:09.185Z,58.48
2023-09-20T21:08:43.960Z,58.20
2023-09-20T21:11:18.186Z,58.70
2023-09-20T21:13:50.819Z,58.30
2023-09-20T21:16:25.263Z,57.34
2023-09-20T21:19:01.082Z,57.09
2023-09-20T21:21:33.618Z,57.21
2023-09-20T21:24:06.238Z,57.79
2023-09-20T21:26:38.818Z,57.34
2023-09-20T21:29:11.275Z,57.58
2023-09-20T21:31:44.005Z,57.25
2023-09-20T21:34:18.929Z,57.25
2023-09-20T21:36:51.487Z,58.82
2023-09-20T21:39:23.641Z,57.66
2023-09-20T21:41:56.409Z,57.46
2023-09-20T21:44:28.587Z,58.53
2023-09-20T21:47:01.151Z,58.09
2023-09-20T21:49:36.002Z,58.93
2023-09-20T21:52:08.971Z,57.64
2023-09-20T21:54:41.255Z,58.11
2023-09-20T21:57:13.752Z,58.33
2023-09-20T21:59:45.683Z,58.15
2023-09-20T22:02:18.295Z,58.64
2023-09-20T22:04:53.605Z,58.92
2023-09-20T22:07:26.375Z,57.85
2023-09-20T22:09:58.615Z,58.49
2023-09-20T22:12:32.502Z,57.73
2023-09-20T22:15:04.798Z,57.58
2023-09-20T22:17:38.232Z,57.87
2023-09-20T22:20:20.244Z,57.38
2023-09-20T22:22:54.764Z,57.14
2023-09-20T22:25:32.153Z,58.12
2023-09-20T22:28:07.274Z,57.94
2023-09-20T22:30:43.698Z,58.34
2023-09-20T22:33:19.749Z,58.59
2023-09-20T22:36:08.096Z,59.78
2023-09-20T22:38:51.280Z,59.88
2023-09-20T22:41:25.978Z,58.98
2023-09-20T22:44:02.145Z,58.43
2023-09-20T22:46:38.877Z,58.85
2023-09-20T22:49:16.100Z,58.59
2023-09-20T22:51:54.411Z,59.38
2023-09-20T22:54:29.544Z,59.60
2023-09-20T22:57:04.912Z,58.48
2023-09-20T22:59:42.189Z,59.96
2023-09-20T23:02:23.456Z,60.20
2023-09-20T23:04:58.278Z,60.15
2023-09-20T23:07:34.035Z,61.22
2023-09-20T23:10:13.857Z,60.59
2023-09-20T23:12:46.994Z,61.59
2023-09-20T23:15:21.655Z,60.87
2023-09-20T23:17:58.765Z,61.29
2023-09-20T23:20:39.483Z,61.53
2023-09-20T23:23:19.039Z,61.25
2023-09-20T23:25:54.605Z,61.66
2023-09-20T23:28:29.491Z,61.84
2023-09-20T23:31:06.304Z,61.33
2023-09-20T23:33:41.249Z,61.83
2023-09-20T23:36:21.435Z,61.09
2023-09-20T23:38:58.993Z,60.87
2023-09-20T23:41:34.056Z,61.61
2023-09-20T23:44:31.362Z,62.00
2023-09-20T23:47:19.148Z,61.56
2023-09-20T23:49:56.235Z,61.87
2023-09-20T23:52:31.146Z,61.57
2023-09-20T23:55:07.615Z,61.29
2023-09-20T23:57:42.624Z,61.38
